createdAt,value
2023-03-05T00:02:02.537Z,0.77
2023-03-05T00:04:32.341Z,0.47
2023-03-05T00:07:00.777Z,0.57
2023-03-05T00:09:29.071Z,0.50
2023-03-05T00:11:57.459Z,0.82
2023-03-05T00:14:25.873Z,0.80
2023-03-05T00:16:54.118Z,0.52
2023-03-05T00:19:26.625Z,0.70
2023-03-05T00:22:00.800Z,0.73
2023-03-05T00:24:29.372Z,0.90
2023-03-05T00:26:59.802Z,0.75
2023-03-05T00:29:32.552Z,0.88
2023-03-05T00:32:03.247Z,1.13
2023-03-05T00:34:31.682Z,0.80
2023-03-05T00:37:01.261Z,0.98
2023-03-05T00:39:29.793Z,1.08
2023-03-05T00:42:02.900Z,0.82
2023-03-05T00:44:31.513Z,0.68
2023-03-05T00:46:59.854Z,1.00
2023-03-05T00:49:30.421Z,1.05
2023-03-05T00:51:58.815Z,1.10
2023-03-05T00:54:28.418Z,1.38
2023-03-05T00:56:57.377Z,1.05
2023-03-05T00:59:25.814Z,0.82
2023-03-05T01:01:54.109Z,1.25
2023-03-05T01:04:22.562Z,1.40
2023-03-05T01:06:50.941Z,1.13
2023-03-05T01:09:19.184Z,1.25
2023-03-05T01:11:49.044Z,1.33
2023-03-05T01:14:24.022Z,1.20
2023-03-05T01:16:52.297Z,1.42
2023-03-05T01:19:20.838Z,1.63
2023-03-05T01:21:49.075Z,1.75
2023-03-05T01:24:17.822Z,1.38
2023-03-05T01:26:46.344Z,1.13
2023-03-05T01:29:17.968Z,1.55
2023-03-05T01:31:46.478Z,0.93
2023-03-05T01:34:14.768Z,1.45
2023-03-05T01:36:43.378Z,1.00
2023-03-05T01:39:11.653Z,1.48
2023-03-05T01:41:40.064Z,1.23
2023-03-05T01:44:10.292Z,1.33
2023-03-05T01:46:40.288Z,1.33
2023-03-05T01:49:18.024Z,1.20
2023-03-05T01:51:50.814Z,0.90
2023-03-05T01:54:23.410Z,1.38
2023-03-05T01:56:53.498Z,1.27
2023-03-05T01:59:23.796Z,1.08
2023-03-05T02:01:55.416Z,2.75
2023-03-05T02:04:25.588Z,2.15
2023-03-05T02:06:58.434Z,1.95
2023-03-05T02:09:28.713Z,1.92
2023-03-05T02:11:57.463Z,1.10
2023-03-05T02:14:26.083Z,0.95
2023-03-05T02:16:55.859Z,1.10
2023-03-05T02:19:28.683Z,1.35
2023-03-05T02:21:58.408Z,1.42
2023-03-05T02:24:37.169Z,1.65
2023-03-05T02:27:06.952Z,1.75
2023-03-05T02:29:36.506Z,1.00
2023-03-05T02:32:05.232Z,1.10
2023-03-05T02:34:33.754Z,0.95
2023-03-05T02:37:04.631Z,1.25
2023-03-05T02:39:34.846Z,1.25
2023-03-05T02:42:03.593Z,1.13
2023-03-05T02:44:32.635Z,1.90
2023-03-05T02:47:01.105Z,1.38
2023-03-05T02:49:29.553Z,1.70
2023-03-05T02:52:00.265Z,1.00
2023-03-05T02:54:30.216Z,1.20
2023-03-05T02:56:58.485Z,1.17
2023-03-05T02:59:31.276Z,1.50
2023-03-05T03:01:59.693Z,0.88
2023-03-05T03:04:27.968Z,1.17
2023-03-05T03:06:56.215Z,1.20
2023-03-05T03:09:24.536Z,1.30
2023-03-05T03:11:54.300Z,1.15
2023-03-05T03:14:22.701Z,1.23
2023-03-05T03:16:59.771Z,1.10
2023-03-05T03:19:30.840Z,1.27
2023-03-05T03:22:01.316Z,1.15
2023-03-05T03:24:34.939Z,1.48
2023-03-05T03:27:06.918Z,1.35
2023-03-05T03:29:39.817Z,1.33
2023-03-05T03:32:09.154Z,1.63
2023-03-05T03:34:37.732Z,1.50
2023-03-05T03:37:06.020Z,1.80
2023-03-05T03:39:36.470Z,1.75
2023-03-05T03:42:06.419Z,1.80
2023-03-05T03:44:34.728Z,1.02
2023-03-05T03:47:05.421Z,1.98
2023-03-05T03:49:34.046Z,1.42
2023-03-05T03:52:02.288Z,1.48
2023-03-05T03:54:34.967Z,1.60
2023-03-05T03:57:05.692Z,1.90
2023-03-05T03:59:35.272Z,1.15
2023-03-05T04:02:03.606Z,0.95
2023-03-05T04:04:34.321Z,1.13
2023-03-05T04:07:02.653Z,0.70
2023-03-05T04:09:30.908Z,1.23
2023-03-05T04:11:59.365Z,0.80
2023-03-05T04:14:27.662Z,0.88
2023-03-05T04:16:57.353Z,1.15
2023-03-05T04:19:26.057Z,1.08
2023-03-05T04:21:54.351Z,0.90
2023-03-05T04:24:22.879Z,0.68
2023-03-05T04:26:51.417Z,0.57
2023-03-05T04:29:19.784Z,0.63
2023-03-05T04:31:50.487Z,0.85
2023-03-05T04:34:26.504Z,0.70
2023-03-05T04:36:56.927Z,0.70
2023-03-05T04:39:25.296Z,0.60
2023-03-05T04:41:53.535Z,0.50
2023-03-05T04:44:23.294Z,1.10
2023-03-05T04:46:51.958Z,1.25
2023-03-05T04:49:21.751Z,1.10
2023-03-05T04:51:50.011Z,1.17
2023-03-05T04:54:20.395Z,1.40
2023-03-05T04:56:50.966Z,1.33
2023-03-05T04:59:21.510Z,1.35
2023-03-05T05:01:49.737Z,2.28
2023-03-05T05:04:18.030Z,1.40
2023-03-05T05:06:50.076Z,1.20
2023-03-05T05:09:18.508Z,1.27
2023-03-05T05:11:46.743Z,1.70
2023-03-05T05:14:15.310Z,1.10
2023-03-05T05:16:43.556Z,1.10
2023-03-05T05:19:11.907Z,1.48
2023-03-05T05:21:40.821Z,0.90
2023-03-05T05:24:14.671Z,0.50
2023-03-05T05:26:42.994Z,0.70
2023-03-05T05:29:11.227Z,0.70
2023-03-05T05:31:39.900Z,0.50
2023-03-05T05:34:08.612Z,0.60
2023-03-05T05:36:36.883Z,0.38
2023-03-05T05:39:05.258Z,1.75
2023-03-05T05:41:34.797Z,1.55
2023-03-05T05:44:03.146Z,0.60
2023-03-05T05:46:31.538Z,0.60
2023-03-05T05:49:02.034Z,0.43
2023-03-05T05:51:30.382Z,0.70
2023-03-05T05:53:58.674Z,0.77
2023-03-05T05:56:26.900Z,0.60
2023-03-05T05:58:56.615Z,0.80
2023-03-05T06:01:28.976Z,0.52
2023-03-05T06:04:04.092Z,1.23
2023-03-05T06:06:33.461Z,0.68
2023-03-05T06:09:01.876Z,0.68
2023-03-05T06:11:34.104Z,0.73
2023-03-05T06:14:07.654Z,0.57
2023-03-05T06:16:36.402Z,0.70
2023-03-05T06:19:05.309Z,0.60
2023-03-05T06:21:34.025Z,0.52
2023-03-05T06:24:02.255Z,0.98
2023-03-05T06:26:30.507Z,0.90
2023-03-05T06:28:59.185Z,1.92
2023-03-05T06:31:29.334Z,1.80
2023-03-05T06:34:01.188Z,1.73
2023-03-05T06:36:32.180Z,1.77
2023-03-05T06:39:00.532Z,1.65
2023-03-05T06:41:29.965Z,1.67
2023-03-05T06:44:00.591Z,1.55
2023-03-05T06:46:31.188Z,1.60
2023-03-05T06:49:03.751Z,2.17
2023-03-05T06:51:32.804Z,2.03
2023-03-05T06:54:02.036Z,2.30
2023-03-05T06:56:32.393Z,2.08
2023-03-05T06:59:00.661Z,1.63
2023-03-05T07:01:30.510Z,1.05
2023-03-05T07:04:00.381Z,0.90
2023-03-05T07:06:29.036Z,0.90
2023-03-05T07:08:57.465Z,1.08
2023-03-05T07:11:28.548Z,1.00
2023-03-05T07:14:03.183Z,0.80
2023-03-05T07:16:34.036Z,1.23
2023-03-05T07:19:03.086Z,1.08
2023-03-05T07:21:32.471Z,0.70
2023-03-05T07:24:01.527Z,0.73
2023-03-05T07:26:30.828Z,0.93
2023-03-05T07:29:01.434Z,0.50
2023-03-05T07:31:32.447Z,0.93
2023-03-05T07:34:06.545Z,0.95
2023-03-05T07:36:38.338Z,1.05
2023-03-05T07:39:07.269Z,0.90
2023-03-05T07:41:39.206Z,0.35
2023-03-05T07:44:11.799Z,0.60
2023-03-05T07:46:40.781Z,0.68
2023-03-05T07:49:10.752Z,0.40
2023-03-05T07:51:39.123Z,0.85
2023-03-05T07:54:07.872Z,0.68
2023-03-05T07:56:37.106Z,0.40
2023-03-05T07:59:06.730Z,0.93
2023-03-05T08:01:35.843Z,0.45
2023-03-05T08:04:11.513Z,0.85
2023-03-05T08:06:47.037Z,0.30
2023-03-05T08:09:15.400Z,0.80
2023-03-05T08:11:46.265Z,0.60
2023-03-05T08:14:14.701Z,0.40
2023-03-05T08:16:43.012Z,0.73
2023-03-05T08:19:14.314Z,0.40
2023-03-05T08:21:44.101Z,0.70
2023-03-05T08:24:15.414Z,0.55
2023-03-05T08:26:46.041Z,0.68
2023-03-05T08:29:14.445Z,0.60
2023-03-05T08:31:46.473Z,0.80
2023-03-05T08:34:16.887Z,0.77
2023-03-05T08:36:48.935Z,0.77
2023-03-05T08:39:17.308Z,0.47
2023-03-05T08:41:45.566Z,0.90
2023-03-05T08:44:13.936Z,0.60
2023-03-05T08:46:42.510Z,0.52
2023-03-05T08:49:13.790Z,0.90
2023-03-05T08:51:42.262Z,0.63
2023-03-05T08:54:12.051Z,0.63
2023-03-05T08:56:42.752Z,0.40
2023-03-05T08:59:13.636Z,0.60
2023-03-05T09:01:42.028Z,0.57
2023-03-05T09:04:11.171Z,0.55
2023-03-05T09:06:40.501Z,0.40
2023-03-05T09:09:09.487Z,0.32
2023-03-05T09:11:43.481Z,0.68
2023-03-05T09:14:12.397Z,0.40
2023-03-05T09:16:41.586Z,0.30
2023-03-05T09:19:10.663Z,0.70
2023-03-05T09:21:39.085Z,0.55
2023-03-05T09:24:07.766Z,0.60
2023-03-05T09:26:38.908Z,0.60
2023-03-05T09:29:08.965Z,0.50
2023-03-05T09:31:39.957Z,0.43
2023-03-05T09:34:09.252Z,0.68
2023-03-05T09:36:37.675Z,0.40
2023-03-05T09:39:06.984Z,0.85
2023-03-05T09:41:39.733Z,0.68
2023-03-05T09:44:12.887Z,0.50
2023-03-05T09:46:50.849Z,0.82
2023-03-05T09:49:21.651Z,0.50
2023-03-05T09:51:52.114Z,0.40
2023-03-05T09:54:21.625Z,0.45
2023-03-05T09:56:51.495Z,0.57
2023-03-05T09:59:28.641Z,0.52
2023-03-05T10:01:59.548Z,0.65
2023-03-05T10:04:30.532Z,0.60
2023-03-05T10:07:02.733Z,0.93
2023-03-05T10:09:38.802Z,0.50
2023-03-05T10:12:09.070Z,0.90
2023-03-05T10:14:40.724Z,0.40
2023-03-05T10:17:27.095Z,0.70
2023-03-05T10:20:05.894Z,0.70
2023-03-05T10:22:38.853Z,0.50
2023-03-05T10:25:15.900Z,0.43
2023-03-05T10:27:49.079Z,1.08
2023-03-05T10:30:48.346Z,0.35
2023-03-05T10:33:21.275Z,0.40
2023-03-05T10:36:01.203Z,0.28
2023-03-05T10:38:42.347Z,0.30
2023-03-05T10:41:18.382Z,0.15
2023-03-05T10:43:52.927Z,0.45
2023-03-05T10:46:23.576Z,0.40
2023-03-05T10:48:55.135Z,0.20
2023-03-05T10:51:32.072Z,0.30
2023-03-05T10:54:03.314Z,0.30
2023-03-05T10:56:31.905Z,0.20
2023-03-05T10:59:00.299Z,0.20
2023-03-05T11:01:33.341Z,0.30
2023-03-05T11:04:03.617Z,0.22
2023-03-05T11:06:36.573Z,0.38
2023-03-05T11:09:17.086Z,0.20
2023-03-05T11:11:45.419Z,0.20
2023-03-05T11:14:30.083Z,1.02
2023-03-05T11:16:59.733Z,0.50
2023-03-05T11:19:31.668Z,0.20
2023-03-05T11:22:07.870Z,0.20
2023-03-05T11:24:36.482Z,0.40
2023-03-05T11:27:25.501Z,0.32
2023-03-05T11:29:54.094Z,0.63
2023-03-05T11:32:25.243Z,0.20
2023-03-05T11:34:56.315Z,0.40
2023-03-05T11:37:25.749Z,0.40
2023-03-05T11:40:12.866Z,0.10
2023-03-05T11:42:41.987Z,0.40
2023-03-05T11:45:19.085Z,0.30
2023-03-05T11:47:49.857Z,0.70
2023-03-05T11:50:25.611Z,0.73
2023-03-05T11:52:55.859Z,0.32
2023-03-05T11:55:31.974Z,0.50
2023-03-05T11:58:06.741Z,0.30
2023-03-05T12:00:37.538Z,0.40
2023-03-05T12:03:11.923Z,0.40
2023-03-05T12:05:42.495Z,0.50
2023-03-05T12:08:13.718Z,0.50
2023-03-05T12:10:44.534Z,0.50
2023-03-05T12:13:19.187Z,0.40
2023-03-05T12:15:53.738Z,0.50
2023-03-05T12:18:37.091Z,0.43
2023-03-05T12:21:12.639Z,0.65
2023-03-05T12:23:51.218Z,0.50
2023-03-05T12:26:19.840Z,0.60
2023-03-05T12:28:55.322Z,0.40
2023-03-05T12:31:29.390Z,0.60
2023-03-05T12:33:59.545Z,0.40
2023-03-05T12:36:40.827Z,0.30
2023-03-05T12:39:40.371Z,0.40
2023-03-05T12:42:23.613Z,0.40
2023-03-05T12:45:11.666Z,0.73
2023-03-05T12:47:40.645Z,0.30
2023-03-05T12:50:33.141Z,0.57
2023-03-05T12:53:25.626Z,0.40
2023-03-05T12:56:00.518Z,0.50
2023-03-05T12:58:37.985Z,0.52
2023-03-05T13:01:09.647Z,0.50
2023-03-05T13:03:43.637Z,0.85
2023-03-05T13:06:24.434Z,0.93
2023-03-05T13:08:58.980Z,0.35
2023-03-05T13:11:28.285Z,0.30
2023-03-05T13:13:59.369Z,0.20
2023-03-05T13:16:29.661Z,0.30
2023-03-05T13:19:01.390Z,0.35
2023-03-05T13:21:37.710Z,0.45
2023-03-05T13:24:16.959Z,0.60
2023-03-05T13:26:45.407Z,0.30
2023-03-05T13:29:20.536Z,0.40
2023-03-05T13:31:50.134Z,0.70
2023-03-05T13:34:20.200Z,0.50
2023-03-05T13:36:50.009Z,0.57
2023-03-05T13:39:24.467Z,0.20
2023-03-05T13:41:59.714Z,0.40
2023-03-05T13:44:30.861Z,0.30
2023-03-05T13:47:15.662Z,0.32
2023-03-05T13:49:44.191Z,0.30
2023-03-05T13:52:15.867Z,0.57
2023-03-05T13:54:45.552Z,0.43
2023-03-05T13:57:32.560Z,0.65
2023-03-05T14:00:05.475Z,0.77
2023-03-05T14:02:37.968Z,0.68
2023-03-05T14:05:15.340Z,0.40
2023-03-05T14:07:51.529Z,0.82
2023-03-05T14:10:30.951Z,0.38
2023-03-05T14:12:59.799Z,0.30
2023-03-05T14:15:29.111Z,0.45
2023-03-05T14:18:09.888Z,0.40
2023-03-05T14:20:38.832Z,0.40
2023-03-05T14:23:26.801Z,0.25
2023-03-05T14:26:15.037Z,0.15
2023-03-05T14:28:43.276Z,0.20
2023-03-05T14:31:17.415Z,0.32
2023-03-05T14:33:45.993Z,0.30
2023-03-05T14:36:16.864Z,0.50
2023-03-05T14:38:45.370Z,0.63
2023-03-05T14:41:34.218Z,0.50
2023-03-05T14:44:02.508Z,0.38
2023-03-05T14:46:30.855Z,0.40
2023-03-05T14:48:59.140Z,0.30
2023-03-05T14:51:27.460Z,0.40
2023-03-05T14:53:55.838Z,0.40
2023-03-05T14:56:29.606Z,0.40
2023-03-05T14:59:00.817Z,0.40
2023-03-05T15:01:29.182Z,0.30
2023-03-05T15:03:57.428Z,0.40
2023-03-05T15:06:30.313Z,0.25
2023-03-05T15:08:58.641Z,1.08
2023-03-05T15:11:30.559Z,0.43
2023-03-05T15:14:01.252Z,0.40
2023-03-05T15:16:32.052Z,0.45
2023-03-05T15:19:00.506Z,0.43
2023-03-05T15:21:28.850Z,0.50
2023-03-05T15:23:59.420Z,0.30
2023-03-05T15:26:31.403Z,0.57
2023-03-05T15:29:02.001Z,0.40
2023-03-05T15:31:38.935Z,0.60
2023-03-05T15:34:07.620Z,0.43
2023-03-05T15:36:36.144Z,0.47
2023-03-05T15:39:04.384Z,0.22
2023-03-05T15:41:35.944Z,0.30
2023-03-05T15:44:04.325Z,0.40
2023-03-05T15:46:33.220Z,0.50
2023-03-05T15:49:03.998Z,0.45
2023-03-05T15:51:32.305Z,0.60
2023-03-05T15:54:00.669Z,0.95
2023-03-05T15:56:28.987Z,0.45
2023-03-05T15:58:58.569Z,0.45
2023-03-05T16:01:26.984Z,0.32
2023-03-05T16:03:55.522Z,0.20
2023-03-05T16:06:25.490Z,0.35
2023-03-05T16:08:56.771Z,0.30
2023-03-05T16:11:25.036Z,0.40
2023-03-05T16:13:53.312Z,0.30
2023-03-05T16:16:24.189Z,0.63
2023-03-05T16:18:55.141Z,0.40
2023-03-05T16:21:23.616Z,0.40
2023-03-05T16:23:52.032Z,0.43
2023-03-05T16:26:22.302Z,0.50
2023-03-05T16:28:50.637Z,0.28
2023-03-05T16:31:21.529Z,0.45
2023-03-05T16:33:51.533Z,0.40
2023-03-05T16:36:24.443Z,0.50
2023-03-05T16:38:53.741Z,0.50
2023-03-05T16:41:25.342Z,0.60
2023-03-05T16:43:56.264Z,0.75
2023-03-05T16:46:25.147Z,0.50
2023-03-05T16:48:59.809Z,0.40
2023-03-05T16:51:32.756Z,0.70
2023-03-05T16:54:03.001Z,0.60
2023-03-05T16:56:35.781Z,0.35
2023-03-05T16:59:04.237Z,0.40
2023-03-05T17:01:32.999Z,0.57
2023-03-05T17:04:05.117Z,0.63
2023-03-05T17:06:36.011Z,0.95
2023-03-05T17:09:04.628Z,1.17
2023-03-05T17:11:32.966Z,0.85
2023-03-05T17:14:02.321Z,0.82
2023-03-05T17:16:30.653Z,0.90
2023-03-05T17:18:59.176Z,0.70
2023-03-05T17:21:29.028Z,0.50
2023-03-05T17:23:57.380Z,0.60
2023-03-05T17:26:27.671Z,0.60
2023-03-05T17:28:56.047Z,0.63
2023-03-05T17:31:24.322Z,0.60
2023-03-05T17:33:54.713Z,0.45
2023-03-05T17:36:23.705Z,0.75
2023-03-05T17:38:53.661Z,0.82
2023-03-05T17:41:22.020Z,1.00
2023-03-05T17:43:51.546Z,1.27
2023-03-05T17:46:19.892Z,1.10
2023-03-05T17:48:52.294Z,0.80
2023-03-05T17:51:20.772Z,0.95
2023-03-05T17:53:49.169Z,0.90
2023-03-05T17:56:22.197Z,0.90
2023-03-05T17:58:50.472Z,0.75
2023-03-05T18:01:26.291Z,0.50
2023-03-05T18:03:54.795Z,0.55
2023-03-05T18:06:23.221Z,0.50
2023-03-05T18:08:51.516Z,0.73
2023-03-05T18:11:23.401Z,0.80
2023-03-05T18:13:51.966Z,1.23
2023-03-05T18:16:21.385Z,0.93
2023-03-05T18:18:49.819Z,0.93
2023-03-05T18:21:20.408Z,0.52
2023-03-05T18:23:48.725Z,0.77
2023-03-05T18:26:17.156Z,0.50
2023-03-05T18:28:46.819Z,0.75
2023-03-05T18:31:15.223Z,0.55
2023-03-05T18:33:44.568Z,0.63
2023-03-05T18:36:13.967Z,0.80
2023-03-05T18:38:45.215Z,1.15
2023-03-05T18:41:20.108Z,0.95
2023-03-05T18:43:54.734Z,0.93
2023-03-05T18:46:23.036Z,0.80
2023-03-05T18:48:51.827Z,1.27
2023-03-05T18:51:21.746Z,1.10
2023-03-05T18:53:51.710Z,1.20
2023-03-05T18:56:20.236Z,1.65
2023-03-05T18:58:50.040Z,1.30
2023-03-05T19:01:18.852Z,1.85
2023-03-05T19:03:47.246Z,1.15
2023-03-05T19:06:21.656Z,1.77
2023-03-05T19:08:56.860Z,1.38
2023-03-05T19:11:25.420Z,1.67
2023-03-05T19:13:56.978Z,1.58
2023-03-05T19:16:27.980Z,1.35
2023-03-05T19:19:03.173Z,1.27
2023-03-05T19:21:32.361Z,1.25
2023-03-05T19:24:00.749Z,1.70
2023-03-05T19:26:28.923Z,1.00
2023-03-05T19:28:58.538Z,1.25
2023-03-05T19:31:27.032Z,1.40
2023-03-05T19:33:55.909Z,1.20
2023-03-05T19:36:24.226Z,1.52
2023-03-05T19:39:01.161Z,1.75
2023-03-05T19:41:29.676Z,1.52
2023-03-05T19:43:59.375Z,1.40
2023-03-05T19:46:28.027Z,2.30
2023-03-05T19:48:56.341Z,2.17
2023-03-05T19:51:26.012Z,1.85
2023-03-05T19:53:54.672Z,1.60
2023-03-05T19:56:23.188Z,1.63
2023-03-05T19:58:51.637Z,1.63
2023-03-05T20:01:22.013Z,1.92
2023-03-05T20:03:51.748Z,2.45
2023-03-05T20:06:20.623Z,1.52
2023-03-05T20:08:49.290Z,1.77
2023-03-05T20:11:18.717Z,1.63
2023-03-05T20:13:47.560Z,3.20
2023-03-05T20:16:16.934Z,3.03
2023-03-05T20:18:55.352Z,2.60
2023-03-05T20:21:25.532Z,2.85
2023-03-05T20:23:54.667Z,3.25
2023-03-05T20:26:23.612Z,5.13
2023-03-05T20:28:52.061Z,11.23
2023-03-05T20:31:21.236Z,7.65
2023-03-05T20:33:51.458Z,4.60
2023-03-05T20:36:19.938Z,3.30
2023-03-05T20:38:48.288Z,3.97
2023-03-05T20:41:17.454Z,5.07
2023-03-05T20:43:46.571Z,5.38
2023-03-05T20:46:17.376Z,6.18
2023-03-05T20:48:47.949Z,6.50
2023-03-05T20:51:19.194Z,8.50
2023-03-05T20:53:47.667Z,4.32
2023-03-05T20:56:16.002Z,3.75
2023-03-05T20:58:44.651Z,5.30
2023-03-05T21:01:13.091Z,6.15
2023-03-05T21:03:42.173Z,6.45
2023-03-05T21:06:10.854Z,16.42
2023-03-05T21:08:40.726Z,14.32
2023-03-05T21:11:09.903Z,9.82
2023-03-05T21:13:39.114Z,11.65
2023-03-05T21:16:08.286Z,9.55
2023-03-05T21:18:36.996Z,4.63
2023-03-05T21:21:05.671Z,3.28
2023-03-05T21:23:33.942Z,2.80
2023-03-05T21:26:04.543Z,2.75
2023-03-05T21:28:33.246Z,2.85
2023-03-05T21:31:07.033Z,2.75
2023-03-05T21:33:38.351Z,2.90
2023-03-05T21:36:07.788Z,3.45
2023-03-05T21:38:36.081Z,2.45
2023-03-05T21:41:15.380Z,2.30
2023-03-05T21:43:43.796Z,2.50
2023-03-05T21:46:12.463Z,2.08
2023-03-05T21:48:40.784Z,2.30
2023-03-05T21:51:11.417Z,2.38
2023-03-05T21:53:39.839Z,2.35
2023-03-05T21:56:22.222Z,2.03
2023-03-05T21:58:51.088Z,2.00
2023-03-05T22:01:22.113Z,2.95
2023-03-05T22:03:50.910Z,2.55
2023-03-05T22:06:20.351Z,1.90
2023-03-05T22:08:48.814Z,2.28
2023-03-05T22:11:20.957Z,2.50
2023-03-05T22:13:51.743Z,2.00
2023-03-05T22:16:24.017Z,2.85
2023-03-05T22:18:57.141Z,2.20
2023-03-05T22:21:27.288Z,2.20
2023-03-05T22:23:59.868Z,2.65
2023-03-05T22:26:39.789Z,2.55
2023-03-05T22:29:12.915Z,3.03
2023-03-05T22:31:41.528Z,3.05
2023-03-05T22:34:09.981Z,2.22
2023-03-05T22:36:38.954Z,2.45
2023-03-05T22:39:07.553Z,3.33
2023-03-05T22:41:39.560Z,2.67
2023-03-05T22:44:08.043Z,3.40
2023-03-05T22:46:41.107Z,3.40
2023-03-05T22:49:09.763Z,3.13
2023-03-05T22:51:38.137Z,4.20
2023-03-05T22:54:06.638Z,4.25
2023-03-05T22:56:35.000Z,4.53
2023-03-05T22:59:04.673Z,4.45
2023-03-05T23:01:32.972Z,4.15
2023-03-05T23:04:08.266Z,4.53
2023-03-05T23:06:38.918Z,4.45
2023-03-05T23:09:07.585Z,5.03
2023-03-05T23:11:35.949Z,5.10
2023-03-05T23:14:07.815Z,5.40
2023-03-05T23:16:36.154Z,5.15
2023-03-05T23:19:04.436Z,5.82
2023-03-05T23:21:32.674Z,6.03
2023-03-05T23:24:01.071Z,5.85
2023-03-05T23:26:29.403Z,4.70
2023-03-05T23:28:57.773Z,4.95
2023-03-05T23:31:27.392Z,5.00
2023-03-05T23:33:55.683Z,6.35
2023-03-05T23:36:25.509Z,5.50
2023-03-05T23:38:57.568Z,5.75
2023-03-05T23:41:29.761Z,5.32
2023-03-05T23:43:58.149Z,4.70
2023-03-05T23:46:27.780Z,4.93
2023-03-05T23:48:56.043Z,4.95
2023-03-05T23:51:24.335Z,5.10
2023-03-05T23:53:52.566Z,4.90
2023-03-05T23:56:20.850Z,4.63
2023-03-05T23:58:51.642Z,5.20
